sensor_id;sensor_type;location;lat;lon;timestamp;temperature;humidity
65378;SHT31;51982;51.042;13.806;2022-10-16T00:02:16;16.57;90.79
65378;SHT31;51982;51.042;13.806;2022-10-16T00:04:41;16.57;90.88
65378;SHT31;51982;51.042;13.806;2022-10-16T00:07:07;16.57;90.87
65378;SHT31;51982;51.042;13.806;2022-10-16T00:09:32;16.54;90.95
65378;SHT31;51982;51.042;13.806;2022-10-16T00:11:57;16.53;90.99
65378;SHT31;51982;51.042;13.806;2022-10-16T00:14:23;16.51;91.06
65378;SHT31;51982;51.042;13.806;2022-10-16T00:16:48;16.53;91.07
65378;SHT31;51982;51.042;13.806;2022-10-16T00:19:13;16.54;91.19
65378;SHT31;51982;51.042;13.806;2022-10-16T00:21:39;16.56;91.13
65378;SHT31;51982;51.042;13.806;2022-10-16T00:24:07;16.54;91.06
65378;SHT31;51982;51.042;13.806;2022-10-16T00:26:35;16.53;91.04
65378;SHT31;51982;51.042;13.806;2022-10-16T00:29:00;16.54;91.08
65378;SHT31;51982;51.042;13.806;2022-10-16T00:31:26;16.51;91.10
65378;SHT31;51982;51.042;13.806;2022-10-16T00:33:52;16.48;91.12
65378;SHT31;51982;51.042;13.806;2022-10-16T00:36:20;16.50;91.13
65378;SHT31;51982;51.042;13.806;2022-10-16T00:38:45;16.46;91.23
65378;SHT31;51982;51.042;13.806;2022-10-16T00:41:15;16.50;91.20
65378;SHT31;51982;51.042;13.806;2022-10-16T00:43:46;16.48;91.14
65378;SHT31;51982;51.042;13.806;2022-10-16T00:51:19;16.44;91.16
65378;SHT31;51982;51.042;13.806;2022-10-16T00:53:46;16.44;91.21
65378;SHT31;51982;51.042;13.806;2022-10-16T00:56:11;16.46;91.29
65378;SHT31;51982;51.042;13.806;2022-10-16T00:58:36;16.50;91.30
65378;SHT31;51982;51.042;13.806;2022-10-16T01:01:02;16.53;91.31
65378;SHT31;51982;51.042;13.806;2022-10-16T01:03:33;16.53;91.28
65378;SHT31;51982;51.042;13.806;2022-10-16T01:09:13;16.57;91.14
65378;SHT31;51982;51.042;13.806;2022-10-16T01:11:44;16.57;91.12
65378;SHT31;51982;51.042;13.806;2022-10-16T01:14:22;16.58;91.12
65378;SHT31;51982;51.042;13.806;2022-10-16T01:17:12;16.63;91.15
65378;SHT31;51982;51.042;13.806;2022-10-16T01:20:41;16.67;91.17
65378;SHT31;51982;51.042;13.806;2022-10-16T01:23:14;16.68;91.09
65378;SHT31;51982;51.042;13.806;2022-10-16T01:26:14;16.68;91.03
65378;SHT31;51982;51.042;13.806;2022-10-16T01:28:44;16.71;91.04
65378;SHT31;51982;51.042;13.806;2022-10-16T01:31:13;16.71;91.07
65378;SHT31;51982;51.042;13.806;2022-10-16T01:33:46;16.71;91.02
65378;SHT31;51982;51.042;13.806;2022-10-16T01:36:21;16.77;90.98
65378;SHT31;51982;51.042;13.806;2022-10-16T01:38:51;16.77;90.99
65378;SHT31;51982;51.042;13.806;2022-10-16T01:41:32;16.79;90.96
65378;SHT31;51982;51.042;13.806;2022-10-16T01:44:14;16.79;90.96
65378;SHT31;51982;51.042;13.806;2022-10-16T01:46:43;16.82;90.97
65378;SHT31;51982;51.042;13.806;2022-10-16T01:49:11;16.84;90.99
65378;SHT31;51982;51.042;13.806;2022-10-16T01:51:37;16.84;90.93
65378;SHT31;51982;51.042;13.806;2022-10-16T01:54:04;16.85;91.01
65378;SHT31;51982;51.042;13.806;2022-10-16T01:56:32;16.85;90.93
65378;SHT31;51982;51.042;13.806;2022-10-16T01:59:12;16.88;90.96
65378;SHT31;51982;51.042;13.806;2022-10-16T02:01:40;16.87;90.89
65378;SHT31;51982;51.042;13.806;2022-10-16T02:04:17;16.88;90.88
65378;SHT31;51982;51.042;13.806;2022-10-16T02:06:43;16.92;90.90
65378;SHT31;51982;51.042;13.806;2022-10-16T02:09:09;16.92;90.91
65378;SHT31;51982;51.042;13.806;2022-10-16T02:11:34;16.91;90.90
65378;SHT31;51982;51.042;13.806;2022-10-16T02:14:06;16.94;90.81
65378;SHT31;51982;51.042;13.806;2022-10-16T02:16:39;16.92;90.79
65378;SHT31;51982;51.042;13.806;2022-10-16T02:19:05;16.94;90.82
65378;SHT31;51982;51.042;13.806;2022-10-16T02:21:40;16.95;90.85
65378;SHT31;51982;51.042;13.806;2022-10-16T02:29:14;16.96;90.63
65378;SHT31;51982;51.042;13.806;2022-10-16T02:31:45;16.96;90.62
65378;SHT31;51982;51.042;13.806;2022-10-16T02:34:13;16.99;90.55
65378;SHT31;51982;51.042;13.806;2022-10-16T02:36:40;16.99;90.56
65378;SHT31;51982;51.042;13.806;2022-10-16T02:39:07;16.99;90.49
65378;SHT31;51982;51.042;13.806;2022-10-16T02:41:33;17.02;90.49
65378;SHT31;51982;51.042;13.806;2022-10-16T02:43:59;17.01;90.52
65378;SHT31;51982;51.042;13.806;2022-10-16T02:46:24;17.01;90.45
65378;SHT31;51982;51.042;13.806;2022-10-16T02:48:49;17.04;90.40
65378;SHT31;51982;51.042;13.806;2022-10-16T02:51:14;17.01;90.36
65378;SHT31;51982;51.042;13.806;2022-10-16T02:53:40;17.04;90.37
65378;SHT31;51982;51.042;13.806;2022-10-16T02:56:05;17.04;90.28
65378;SHT31;51982;51.042;13.806;2022-10-16T02:58:30;17.08;90.17
65378;SHT31;51982;51.042;13.806;2022-10-16T03:00:56;17.07;90.14
65378;SHT31;51982;51.042;13.806;2022-10-16T03:03:21;17.09;90.10
65378;SHT31;51982;51.042;13.806;2022-10-16T03:05:47;17.07;90.10
65378;SHT31;51982;51.042;13.806;2022-10-16T03:08:13;17.08;90.09
65378;SHT31;51982;51.042;13.806;2022-10-16T03:10:38;17.05;90.05
65378;SHT31;51982;51.042;13.806;2022-10-16T03:13:03;17.07;90.03
65378;SHT31;51982;51.042;13.806;2022-10-16T03:15:29;17.02;90.02
65378;SHT31;51982;51.042;13.806;2022-10-16T03:17:54;17.02;90.06
65378;SHT31;51982;51.042;13.806;2022-10-16T03:20:20;17.02;90.09
65378;SHT31;51982;51.042;13.806;2022-10-16T03:22:45;17.04;90.10
65378;SHT31;51982;51.042;13.806;2022-10-16T03:25:10;17.04;90.04
65378;SHT31;51982;51.042;13.806;2022-10-16T03:27:36;17.01;90.08
65378;SHT31;51982;51.042;13.806;2022-10-16T03:30:02;17.02;90.06
65378;SHT31;51982;51.042;13.806;2022-10-16T03:32:27;17.02;90.05
65378;SHT31;51982;51.042;13.806;2022-10-16T03:34:53;16.99;90.08
65378;SHT31;51982;51.042;13.806;2022-10-16T03:37:19;16.99;90.16
65378;SHT31;51982;51.042;13.806;2022-10-16T03:39:45;16.98;90.15
65378;SHT31;51982;51.042;13.806;2022-10-16T03:42:10;16.96;90.25
65378;SHT31;51982;51.042;13.806;2022-10-16T03:44:35;16.98;90.24
65378;SHT31;51982;51.042;13.806;2022-10-16T03:47:00;16.96;90.24
65378;SHT31;51982;51.042;13.806;2022-10-16T03:49:26;16.95;90.28
65378;SHT31;51982;51.042;13.806;2022-10-16T03:51:51;16.94;90.27
65378;SHT31;51982;51.042;13.806;2022-10-16T03:54:16;16.94;90.38
65378;SHT31;51982;51.042;13.806;2022-10-16T03:56:41;16.91;90.38
65378;SHT31;51982;51.042;13.806;2022-10-16T03:59:07;16.88;90.44
65378;SHT31;51982;51.042;13.806;2022-10-16T04:01:32;16.88;90.45
65378;SHT31;51982;51.042;13.806;2022-10-16T04:03:57;16.89;90.46
65378;SHT31;51982;51.042;13.806;2022-10-16T04:06:22;16.88;90.41
65378;SHT31;51982;51.042;13.806;2022-10-16T04:08:48;16.92;90.46
65378;SHT31;51982;51.042;13.806;2022-10-16T04:11:13;16.88;90.47
65378;SHT31;51982;51.042;13.806;2022-10-16T04:13:38;16.89;90.52
65378;SHT31;51982;51.042;13.806;2022-10-16T04:16:04;16.89;90.56
65378;SHT31;51982;51.042;13.806;2022-10-16T04:18:29;16.89;90.57
65378;SHT31;51982;51.042;13.806;2022-10-16T04:20:54;16.91;90.53
65378;SHT31;51982;51.042;13.806;2022-10-16T04:23:20;16.92;90.56
65378;SHT31;51982;51.042;13.806;2022-10-16T04:25:46;16.91;90.54
65378;SHT31;51982;51.042;13.806;2022-10-16T04:28:11;16.94;90.59
65378;SHT31;51982;51.042;13.806;2022-10-16T04:30:38;16.95;90.59
65378;SHT31;51982;51.042;13.806;2022-10-16T04:33:04;16.95;90.55
65378;SHT31;51982;51.042;13.806;2022-10-16T04:35:29;16.89;90.53
65378;SHT31;51982;51.042;13.806;2022-10-16T04:37:57;16.89;90.52
65378;SHT31;51982;51.042;13.806;2022-10-16T04:40:22;16.85;90.63
65378;SHT31;51982;51.042;13.806;2022-10-16T04:42:48;16.85;90.72
65378;SHT31;51982;51.042;13.806;2022-10-16T04:45:13;16.85;90.70
65378;SHT31;51982;51.042;13.806;2022-10-16T04:47:38;16.84;90.75
65378;SHT31;51982;51.042;13.806;2022-10-16T04:50:04;16.84;90.75
65378;SHT31;51982;51.042;13.806;2022-10-16T04:52:29;16.81;90.81
65378;SHT31;51982;51.042;13.806;2022-10-16T04:54:56;16.82;90.84
65378;SHT31;51982;51.042;13.806;2022-10-16T04:57:25;16.82;90.79
65378;SHT31;51982;51.042;13.806;2022-10-16T04:59:51;16.84;90.78
65378;SHT31;51982;51.042;13.806;2022-10-16T05:02:17;16.84;90.80
65378;SHT31;51982;51.042;13.806;2022-10-16T05:04:42;16.82;90.80
65378;SHT31;51982;51.042;13.806;2022-10-16T05:07:07;16.84;90.78
65378;SHT31;51982;51.042;13.806;2022-10-16T05:09:33;16.81;90.80
65378;SHT31;51982;51.042;13.806;2022-10-16T05:11:58;16.79;90.83
65378;SHT31;51982;51.042;13.806;2022-10-16T05:14:23;16.79;90.85
65378;SHT31;51982;51.042;13.806;2022-10-16T05:16:51;16.82;90.81
65378;SHT31;51982;51.042;13.806;2022-10-16T05:19:17;16.81;90.84
65378;SHT31;51982;51.042;13.806;2022-10-16T05:21:42;16.81;90.85
65378;SHT31;51982;51.042;13.806;2022-10-16T05:24:07;16.81;90.85
65378;SHT31;51982;51.042;13.806;2022-10-16T05:26:34;16.82;90.89
65378;SHT31;51982;51.042;13.806;2022-10-16T05:28:59;16.81;90.84
65378;SHT31;51982;51.042;13.806;2022-10-16T05:31:24;16.84;90.85
65378;SHT31;51982;51.042;13.806;2022-10-16T05:33:50;16.82;90.84
65378;SHT31;51982;51.042;13.806;2022-10-16T05:36:15;16.82;90.83
65378;SHT31;51982;51.042;13.806;2022-10-16T05:38:40;16.82;90.88
65378;SHT31;51982;51.042;13.806;2022-10-16T05:41:06;16.82;90.93
65378;SHT31;51982;51.042;13.806;2022-10-16T05:43:32;16.85;90.95
65378;SHT31;51982;51.042;13.806;2022-10-16T05:45:59;16.87;90.93
65378;SHT31;51982;51.042;13.806;2022-10-16T05:48:24;16.85;90.92
65378;SHT31;51982;51.042;13.806;2022-10-16T05:51:01;16.87;90.90
65378;SHT31;51982;51.042;13.806;2022-10-16T05:53:28;16.91;90.87
65378;SHT31;51982;51.042;13.806;2022-10-16T05:55:55;16.91;90.87
65378;SHT31;51982;51.042;13.806;2022-10-16T05:58:21;16.95;90.85
65378;SHT31;51982;51.042;13.806;2022-10-16T06:01:17;16.92;90.92
65378;SHT31;51982;51.042;13.806;2022-10-16T06:03:42;16.99;90.81
65378;SHT31;51982;51.042;13.806;2022-10-16T06:06:13;16.96;90.79
65378;SHT31;51982;51.042;13.806;2022-10-16T06:08:40;17.05;90.82
65378;SHT31;51982;51.042;13.806;2022-10-16T06:11:11;17.14;90.68
65378;SHT31;51982;51.042;13.806;2022-10-16T06:13:36;17.14;90.58
65378;SHT31;51982;51.042;13.806;2022-10-16T06:16:03;17.14;90.54
65378;SHT31;51982;51.042;13.806;2022-10-16T06:18:29;17.09;90.61
65378;SHT31;51982;51.042;13.806;2022-10-16T06:20:55;17.11;90.72
65378;SHT31;51982;51.042;13.806;2022-10-16T06:23:21;17.12;90.71
65378;SHT31;51982;51.042;13.806;2022-10-16T06:25:47;17.12;90.76
65378;SHT31;51982;51.042;13.806;2022-10-16T06:28:15;17.16;90.77
65378;SHT31;51982;51.042;13.806;2022-10-16T06:30:41;17.21;90.74
65378;SHT31;51982;51.042;13.806;2022-10-16T06:33:08;17.25;90.70
65378;SHT31;51982;51.042;13.806;2022-10-16T06:35:34;17.28;90.71
65378;SHT31;51982;51.042;13.806;2022-10-16T06:37:59;17.25;90.61
65378;SHT31;51982;51.042;13.806;2022-10-16T06:40:24;17.26;90.61
65378;SHT31;51982;51.042;13.806;2022-10-16T06:42:49;17.25;90.67
65378;SHT31;51982;51.042;13.806;2022-10-16T06:45:17;17.25;90.73
65378;SHT31;51982;51.042;13.806;2022-10-16T06:47:42;17.29;90.69
65378;SHT31;51982;51.042;13.806;2022-10-16T06:50:07;17.38;90.53
65378;SHT31;51982;51.042;13.806;2022-10-16T06:52:33;17.47;90.42
65378;SHT31;51982;51.042;13.806;2022-10-16T06:54:59;17.54;90.32
65378;SHT31;51982;51.042;13.806;2022-10-16T06:57:24;17.57;90.26
65378;SHT31;51982;51.042;13.806;2022-10-16T06:59:50;17.69;90.11
65378;SHT31;51982;51.042;13.806;2022-10-16T07:02:15;17.76;89.90
65378;SHT31;51982;51.042;13.806;2022-10-16T07:04:40;17.89;89.72
65378;SHT31;51982;51.042;13.806;2022-10-16T07:07:05;17.91;89.64
65378;SHT31;51982;51.042;13.806;2022-10-16T07:09:30;17.91;89.53
65378;SHT31;51982;51.042;13.806;2022-10-16T07:11:56;17.89;89.58
65378;SHT31;51982;51.042;13.806;2022-10-16T07:14:21;17.83;89.60
65378;SHT31;51982;51.042;13.806;2022-10-16T07:16:47;17.86;89.70
65378;SHT31;51982;51.042;13.806;2022-10-16T07:19:13;17.86;89.74
65378;SHT31;51982;51.042;13.806;2022-10-16T07:21:40;17.87;89.70
65378;SHT31;51982;51.042;13.806;2022-10-16T07:24:11;17.94;89.63
65378;SHT31;51982;51.042;13.806;2022-10-16T07:26:37;18.01;89.61
65378;SHT31;51982;51.042;13.806;2022-10-16T07:29:04;18.10;89.52
65378;SHT31;51982;51.042;13.806;2022-10-16T07:31:30;18.11;89.40
65378;SHT31;51982;51.042;13.806;2022-10-16T07:33:58;18.13;89.31
65378;SHT31;51982;51.042;13.806;2022-10-16T07:36:23;18.11;89.29
65378;SHT31;51982;51.042;13.806;2022-10-16T07:38:48;18.10;89.23
65378;SHT31;51982;51.042;13.806;2022-10-16T07:41:16;18.08;89.28
65378;SHT31;51982;51.042;13.806;2022-10-16T07:43:47;18.08;89.33
65378;SHT31;51982;51.042;13.806;2022-10-16T07:46:13;18.11;89.35
65378;SHT31;51982;51.042;13.806;2022-10-16T07:48:38;18.14;89.28
65378;SHT31;51982;51.042;13.806;2022-10-16T07:51:05;18.15;89.21
65378;SHT31;51982;51.042;13.806;2022-10-16T07:53:31;18.20;89.13
65378;SHT31;51982;51.042;13.806;2022-10-16T07:56:01;18.25;89.03
65378;SHT31;51982;51.042;13.806;2022-10-16T07:58:27;18.27;88.98
65378;SHT31;51982;51.042;13.806;2022-10-16T08:00:53;18.28;88.95
65378;SHT31;51982;51.042;13.806;2022-10-16T08:03:18;18.35;88.91
65378;SHT31;51982;51.042;13.806;2022-10-16T08:05:43;18.41;88.82
65378;SHT31;51982;51.042;13.806;2022-10-16T08:08:13;18.54;88.61
65378;SHT31;51982;51.042;13.806;2022-10-16T08:10:38;18.66;88.46
65378;SHT31;51982;51.042;13.806;2022-10-16T08:13:04;18.72;88.20
65378;SHT31;51982;51.042;13.806;2022-10-16T08:15:29;18.76;88.08
65378;SHT31;51982;51.042;13.806;2022-10-16T08:18:05;18.86;87.77
65378;SHT31;51982;51.042;13.806;2022-10-16T08:20:31;18.91;87.60
65378;SHT31;51982;51.042;13.806;2022-10-16T08:22:57;18.91;87.60
65378;SHT31;51982;51.042;13.806;2022-10-16T08:25:23;18.86;87.71
65378;SHT31;51982;51.042;13.806;2022-10-16T08:27:48;18.85;87.60
65378;SHT31;51982;51.042;13.806;2022-10-16T08:30:15;18.88;87.55
65378;SHT31;51982;51.042;13.806;2022-10-16T08:32:40;19.00;87.40
65378;SHT31;51982;51.042;13.806;2022-10-16T08:35:08;19.07;87.14
65378;SHT31;51982;51.042;13.806;2022-10-16T08:37:34;19.13;87.03
65378;SHT31;51982;51.042;13.806;2022-10-16T08:40:00;19.19;86.71
65378;SHT31;51982;51.042;13.806;2022-10-16T08:45:41;19.31;86.20
65378;SHT31;51982;51.042;13.806;2022-10-16T08:48:20;19.38;85.98
65378;SHT31;51982;51.042;13.806;2022-10-16T08:50:49;19.45;86.29
65378;SHT31;51982;51.042;13.806;2022-10-16T08:53:22;19.43;86.16
65378;SHT31;51982;51.042;13.806;2022-10-16T08:55:51;19.38;86.28
65378;SHT31;51982;51.042;13.806;2022-10-16T08:58:19;19.37;86.49
65378;SHT31;51982;51.042;13.806;2022-10-16T09:00:51;19.40;86.38
65378;SHT31;51982;51.042;13.806;2022-10-16T09:03:57;19.38;86.25
65378;SHT31;51982;51.042;13.806;2022-10-16T09:09:20;19.24;86.45
65378;SHT31;51982;51.042;13.806;2022-10-16T09:12:00;19.23;86.68
65378;SHT31;51982;51.042;13.806;2022-10-16T09:17:42;19.12;87.04
65378;SHT31;51982;51.042;13.806;2022-10-16T09:20:51;19.15;87.09
65378;SHT31;51982;51.042;13.806;2022-10-16T09:23:23;19.22;87.06
65378;SHT31;51982;51.042;13.806;2022-10-16T09:25:50;19.26;87.07
65378;SHT31;51982;51.042;13.806;2022-10-16T09:28:17;19.23;87.04
65378;SHT31;51982;51.042;13.806;2022-10-16T09:30:43;19.23;87.15
65378;SHT31;51982;51.042;13.806;2022-10-16T09:33:11;19.27;87.12
65378;SHT31;51982;51.042;13.806;2022-10-16T09:35:49;19.28;86.88
65378;SHT31;51982;51.042;13.806;2022-10-16T09:38:35;19.36;86.83
65378;SHT31;51982;51.042;13.806;2022-10-16T09:41:16;19.41;86.78
65378;SHT31;51982;51.042;13.806;2022-10-16T09:46:29;19.53;86.69
65378;SHT31;51982;51.042;13.806;2022-10-16T09:49:38;19.58;86.70
65378;SHT31;51982;51.042;13.806;2022-10-16T09:51:44;19.68;86.36
65378;SHT31;51982;51.042;13.806;2022-10-16T09:54:17;19.79;86.24
65378;SHT31;51982;51.042;13.806;2022-10-16T09:56:42;19.91;86.14
65378;SHT31;51982;51.042;13.806;2022-10-16T09:59:15;19.99;85.95
65378;SHT31;51982;51.042;13.806;2022-10-16T10:01:49;20.05;85.91
65378;SHT31;51982;51.042;13.806;2022-10-16T10:04:16;20.09;85.68
65378;SHT31;51982;51.042;13.806;2022-10-16T10:06:45;20.17;85.60
65378;SHT31;51982;51.042;13.806;2022-10-16T10:11:55;20.25;85.40
65378;SHT31;51982;51.042;13.806;2022-10-16T10:22:17;20.15;85.29
65378;SHT31;51982;51.042;13.806;2022-10-16T10:24:44;20.09;85.41
65378;SHT31;51982;51.042;13.806;2022-10-16T10:27:14;20.05;85.33
65378;SHT31;51982;51.042;13.806;2022-10-16T10:29:53;20.01;85.20
65378;SHT31;51982;51.042;13.806;2022-10-16T10:35:15;20.02;85.30
65378;SHT31;51982;51.042;13.806;2022-10-16T10:38:16;20.02;85.06
65378;SHT31;51982;51.042;13.806;2022-10-16T10:41:02;20.04;85.08
65378;SHT31;51982;51.042;13.806;2022-10-16T10:46:05;20.07;85.18
65378;SHT31;51982;51.042;13.806;2022-10-16T10:51:13;20.26;84.91
65378;SHT31;51982;51.042;13.806;2022-10-16T10:53:56;20.40;84.71
65378;SHT31;51982;51.042;13.806;2022-10-16T10:56:41;20.52;84.42
65378;SHT31;51982;51.042;13.806;2022-10-16T11:02:09;20.73;83.77
65378;SHT31;51982;51.042;13.806;2022-10-16T11:07:37;20.90;83.69
65378;SHT31;51982;51.042;13.806;2022-10-16T11:10:08;20.96;83.19
65378;SHT31;51982;51.042;13.806;2022-10-16T11:12:42;21.00;82.95
65378;SHT31;51982;51.042;13.806;2022-10-16T11:15:23;20.96;82.72
65378;SHT31;51982;51.042;13.806;2022-10-16T11:17:52;20.94;82.24
65378;SHT31;51982;51.042;13.806;2022-10-16T11:20:25;20.96;81.88
65378;SHT31;51982;51.042;13.806;2022-10-16T11:22:55;20.99;81.90
65378;SHT31;51982;51.042;13.806;2022-10-16T11:25:26;21.04;81.62
65378;SHT31;51982;51.042;13.806;2022-10-16T11:28:10;21.15;80.75
65378;SHT31;51982;51.042;13.806;2022-10-16T11:30:44;21.26;80.83
65378;SHT31;51982;51.042;13.806;2022-10-16T11:39:00;21.07;80.23
65378;SHT31;51982;51.042;13.806;2022-10-16T11:41:35;21.11;80.20
65378;SHT31;51982;51.042;13.806;2022-10-16T11:44:14;21.19;79.62
65378;SHT31;51982;51.042;13.806;2022-10-16T11:46:45;21.28;79.73
65378;SHT31;51982;51.042;13.806;2022-10-16T11:49:21;21.37;78.98
65378;SHT31;51982;51.042;13.806;2022-10-16T11:57:15;21.41;79.03
65378;SHT31;51982;51.042;13.806;2022-10-16T12:05:01;21.74;78.65
65378;SHT31;51982;51.042;13.806;2022-10-16T12:07:37;21.71;78.73
65378;SHT31;51982;51.042;13.806;2022-10-16T12:10:26;21.68;78.21
65378;SHT31;51982;51.042;13.806;2022-10-16T12:12:51;21.59;78.89
65378;SHT31;51982;51.042;13.806;2022-10-16T12:15:32;21.58;77.47
65378;SHT31;51982;51.042;13.806;2022-10-16T12:17:58;21.65;78.50
65378;SHT31;51982;51.042;13.806;2022-10-16T12:20:41;21.81;76.93
65378;SHT31;51982;51.042;13.806;2022-10-16T12:23:20;21.86;77.76
65378;SHT31;51982;51.042;13.806;2022-10-16T12:25:54;21.89;77.71
65378;SHT31;51982;51.042;13.806;2022-10-16T12:28:22;21.89;77.72
65378;SHT31;51982;51.042;13.806;2022-10-16T12:31:05;21.84;77.08
65378;SHT31;51982;51.042;13.806;2022-10-16T12:33:33;21.89;77.58
65378;SHT31;51982;51.042;13.806;2022-10-16T12:36:01;21.95;77.45
65378;SHT31;51982;51.042;13.806;2022-10-16T12:38:47;21.95;76.52
65378;SHT31;51982;51.042;13.806;2022-10-16T12:41:33;21.95;76.80
65378;SHT31;51982;51.042;13.806;2022-10-16T12:44:05;21.98;76.87
65378;SHT31;51982;51.042;13.806;2022-10-16T12:46:46;21.96;76.76
65378;SHT31;51982;51.042;13.806;2022-10-16T12:51:41;22.02;76.85
65378;SHT31;51982;51.042;13.806;2022-10-16T12:54:35;22.09;76.49
65378;SHT31;51982;51.042;13.806;2022-10-16T12:57:25;22.16;76.12
65378;SHT31;51982;51.042;13.806;2022-10-16T13:00:17;22.19;75.55
65378;SHT31;51982;51.042;13.806;2022-10-16T13:03:14;22.22;75.94
65378;SHT31;51982;51.042;13.806;2022-10-16T13:08:39;22.19;76.57
65378;SHT31;51982;51.042;13.806;2022-10-16T13:20:09;22.32;75.93
65378;SHT31;51982;51.042;13.806;2022-10-16T13:23:08;22.32;75.46
65378;SHT31;51982;51.042;13.806;2022-10-16T13:25:46;22.35;76.03
65378;SHT31;51982;51.042;13.806;2022-10-16T13:28:16;22.36;76.07
65378;SHT31;51982;51.042;13.806;2022-10-16T13:30:45;22.37;75.99
65378;SHT31;51982;51.042;13.806;2022-10-16T13:33:19;22.42;75.99
65378;SHT31;51982;51.042;13.806;2022-10-16T13:35:51;22.42;75.74
65378;SHT31;51982;51.042;13.806;2022-10-16T13:38:19;22.36;76.03
65378;SHT31;51982;51.042;13.806;2022-10-16T13:40:56;22.28;75.94
65378;SHT31;51982;51.042;13.806;2022-10-16T13:43:26;22.25;76.41
65378;SHT31;51982;51.042;13.806;2022-10-16T13:46:00;22.20;76.58
65378;SHT31;51982;51.042;13.806;2022-10-16T13:48:27;22.13;76.68
65378;SHT31;51982;51.042;13.806;2022-10-16T13:51:10;22.05;76.79
65378;SHT31;51982;51.042;13.806;2022-10-16T13:53:36;21.95;77.39
65378;SHT31;51982;51.042;13.806;2022-10-16T13:56:07;21.91;81.87
65378;SHT31;51982;51.042;13.806;2022-10-16T13:58:35;21.72;83.27
65378;SHT31;51982;51.042;13.806;2022-10-16T14:01:04;21.57;83.96
65378;SHT31;51982;51.042;13.806;2022-10-16T14:03:33;21.62;84.22
65378;SHT31;51982;51.042;13.806;2022-10-16T14:06:02;21.68;83.76
65378;SHT31;51982;51.042;13.806;2022-10-16T14:08:29;21.72;84.03
65378;SHT31;51982;51.042;13.806;2022-10-16T14:10:57;21.75;84.59
65378;SHT31;51982;51.042;13.806;2022-10-16T14:13:34;21.75;85.10
65378;SHT31;51982;51.042;13.806;2022-10-16T14:16:06;21.69;85.54
65378;SHT31;51982;51.042;13.806;2022-10-16T14:18:32;21.68;85.75
65378;SHT31;51982;51.042;13.806;2022-10-16T14:21:06;21.61;85.54
65378;SHT31;51982;51.042;13.806;2022-10-16T14:23:37;21.61;86.08
65378;SHT31;51982;51.042;13.806;2022-10-16T14:28:38;21.66;87.03
65378;SHT31;51982;51.042;13.806;2022-10-16T14:33:45;21.66;87.28
65378;SHT31;51982;51.042;13.806;2022-10-16T14:38:36;21.62;87.29
65378;SHT31;51982;51.042;13.806;2022-10-16T14:41:03;21.61;87.52
65378;SHT31;51982;51.042;13.806;2022-10-16T14:43:34;21.57;87.69
65378;SHT31;51982;51.042;13.806;2022-10-16T14:46:03;21.57;87.91
65378;SHT31;51982;51.042;13.806;2022-10-16T14:48:29;21.52;88.04
65378;SHT31;51982;51.042;13.806;2022-10-16T14:50:55;21.52;88.11
65378;SHT31;51982;51.042;13.806;2022-10-16T14:53:20;21.50;88.24
65378;SHT31;51982;51.042;13.806;2022-10-16T14:55:46;21.45;88.05
65378;SHT31;51982;51.042;13.806;2022-10-16T14:58:17;21.43;88.18
65378;SHT31;51982;51.042;13.806;2022-10-16T15:00:42;21.40;88.24
65378;SHT31;51982;51.042;13.806;2022-10-16T15:03:08;21.37;88.24
65378;SHT31;51982;51.042;13.806;2022-10-16T15:05:33;21.28;88.13
65378;SHT31;51982;51.042;13.806;2022-10-16T15:07:58;21.26;88.05
65378;SHT31;51982;51.042;13.806;2022-10-16T15:10:26;21.24;88.59
65378;SHT31;51982;51.042;13.806;2022-10-16T15:12:52;21.20;88.72
65378;SHT31;51982;51.042;13.806;2022-10-16T15:15:23;21.14;88.75
65378;SHT31;51982;51.042;13.806;2022-10-16T15:17:50;21.10;89.29
65378;SHT31;51982;51.042;13.806;2022-10-16T15:20:21;21.08;89.33
65378;SHT31;51982;51.042;13.806;2022-10-16T15:22:47;21.04;89.20
65378;SHT31;51982;51.042;13.806;2022-10-16T15:25:34;20.97;89.33
65378;SHT31;51982;51.042;13.806;2022-10-16T15:28:03;20.93;89.24
65378;SHT31;51982;51.042;13.806;2022-10-16T15:30:28;20.87;89.20
65378;SHT31;51982;51.042;13.806;2022-10-16T15:32:54;20.83;89.23
65378;SHT31;51982;51.042;13.806;2022-10-16T15:35:19;20.77;89.32
65378;SHT31;51982;51.042;13.806;2022-10-16T15:37:46;20.75;89.45
65378;SHT31;51982;51.042;13.806;2022-10-16T15:40:11;20.68;89.70
65378;SHT31;51982;51.042;13.806;2022-10-16T15:42:37;20.62;89.62
65378;SHT31;51982;51.042;13.806;2022-10-16T15:45:02;20.56;89.68
65378;SHT31;51982;51.042;13.806;2022-10-16T15:47:29;20.50;89.78
65378;SHT31;51982;51.042;13.806;2022-10-16T15:49:54;20.48;90.16
65378;SHT31;51982;51.042;13.806;2022-10-16T15:52:19;20.48;90.47
65378;SHT31;51982;51.042;13.806;2022-10-16T15:54:44;20.49;90.61
65378;SHT31;51982;51.042;13.806;2022-10-16T15:57:10;20.46;90.59
65378;SHT31;51982;51.042;13.806;2022-10-16T15:59:35;20.45;90.69
65378;SHT31;51982;51.042;13.806;2022-10-16T16:02:00;20.43;90.62
65378;SHT31;51982;51.042;13.806;2022-10-16T16:04:25;20.39;90.60
65378;SHT31;51982;51.042;13.806;2022-10-16T16:06:51;20.36;90.52
65378;SHT31;51982;51.042;13.806;2022-10-16T16:09:16;20.35;90.49
65378;SHT31;51982;51.042;13.806;2022-10-16T16:11:41;20.32;90.47
65378;SHT31;51982;51.042;13.806;2022-10-16T16:14:10;20.26;90.56
65378;SHT31;51982;51.042;13.806;2022-10-16T16:16:36;20.18;90.52
65378;SHT31;51982;51.042;13.806;2022-10-16T16:19:06;20.15;90.53
65378;SHT31;51982;51.042;13.806;2022-10-16T16:21:33;20.08;90.50
65378;SHT31;51982;51.042;13.806;2022-10-16T16:23:58;20.04;90.66
65378;SHT31;51982;51.042;13.806;2022-10-16T16:26:26;19.99;90.68
65378;SHT31;51982;51.042;13.806;2022-10-16T16:28:53;19.94;90.75
65378;SHT31;51982;51.042;13.806;2022-10-16T16:31:19;19.89;90.79
65378;SHT31;51982;51.042;13.806;2022-10-16T16:33:44;19.82;90.90
65378;SHT31;51982;51.042;13.806;2022-10-16T16:36:10;19.75;91.14
65378;SHT31;51982;51.042;13.806;2022-10-16T16:38:35;19.74;91.22
65378;SHT31;51982;51.042;13.806;2022-10-16T16:41:21;19.68;91.37
65378;SHT31;51982;51.042;13.806;2022-10-16T16:43:47;19.67;91.22
65378;SHT31;51982;51.042;13.806;2022-10-16T16:46:13;19.60;91.34
65378;SHT31;51982;51.042;13.806;2022-10-16T16:48:39;19.56;91.31
65378;SHT31;51982;51.042;13.806;2022-10-16T16:51:06;19.53;91.35
65378;SHT31;51982;51.042;13.806;2022-10-16T16:53:35;19.47;91.40
65378;SHT31;51982;51.042;13.806;2022-10-16T16:56:05;19.45;91.46
65378;SHT31;51982;51.042;13.806;2022-10-16T16:58:31;19.43;91.50